Lynn Township, Michigan
Current Conditions -  °F | °C
As of 6:36 AM on Friday 31 Oct 2014 (Local Time) from KPHN Reporting Station
Overcast Overcast  
Wind Chill: 41°   Ceiling: 8500
Heat Index: 41°   Visibility: 10mi
Dew Point: 39°   Wind: 0mph
Humidity: 93%   Direction: NA
Pressure: 29.9"   Gusts: NA
Location:  43.127°N, 82.8328°W
Report Text: KPHN 311036Z AUTO 00000KT 10SM SCT039 OVC085 05/04 A2990 RMK AO2
Loading
Personal Weather Stations






























Interactive Weather Map
Tropical Storm Tracking
New forecast layout! Learn more

10-Day Weather Forecast

Advertisements
Track Severe Weather on mobile